createdAt,value
2024-03-30T00:00:14.740Z,14.10
2024-03-30T00:02:41.358Z,14.60
2024-03-30T00:05:08.348Z,11.00
2024-03-30T00:07:39.912Z,16.60
2024-03-30T00:10:06.689Z,14.50
2024-03-30T00:12:33.340Z,23.50
2024-03-30T00:14:59.908Z,16.70
2024-03-30T00:17:26.591Z,12.40
2024-03-30T00:19:53.133Z,14.10
2024-03-30T00:22:19.785Z,9.80
2024-03-30T00:24:46.341Z,12.60
2024-03-30T00:27:12.908Z,18.10
2024-03-30T00:29:39.462Z,16.90
2024-03-30T00:32:06.648Z,17.00
2024-03-30T00:34:33.402Z,19.70
2024-03-30T00:36:59.958Z,16.50
2024-03-30T00:39:26.595Z,13.80
2024-03-30T00:41:53.166Z,14.60
2024-03-30T00:44:20.000Z,21.80
2024-03-30T00:46:46.519Z,9.70
2024-03-30T00:49:13.185Z,8.30
2024-03-30T00:51:39.738Z,10.20
2024-03-30T00:54:06.349Z,5.20
2024-03-30T00:56:32.908Z,14.50
2024-03-30T00:59:01.535Z,15.60
2024-03-30T01:01:28.277Z,11.90
2024-03-30T01:03:54.843Z,10.50
2024-03-30T01:06:22.032Z,7.20
2024-03-30T01:08:48.695Z,7.50
2024-03-30T01:11:15.612Z,5.90
2024-03-30T01:13:42.542Z,5.30
2024-03-30T01:16:12.983Z,11.40
2024-03-30T01:18:40.256Z,15.00
2024-03-30T01:21:16.557Z,9.90
2024-03-30T01:23:48.690Z,6.80
2024-03-30T01:26:19.249Z,10.10
2024-03-30T01:28:47.264Z,7.30
2024-03-30T01:31:14.706Z,7.70
2024-03-30T01:33:41.524Z,8.00
2024-03-30T01:36:08.584Z,8.00
2024-03-30T01:38:35.603Z,8.30
2024-03-30T01:41:02.150Z,12.80
2024-03-30T01:43:28.831Z,12.30
2024-03-30T01:45:57.152Z,10.80
2024-03-30T01:48:24.535Z,16.00
2024-03-30T01:50:53.015Z,17.20
2024-03-30T01:53:24.020Z,11.90
2024-03-30T01:55:53.227Z,16.50
2024-03-30T01:58:25.810Z,13.40
2024-03-30T02:00:54.383Z,13.80
2024-03-30T02:03:22.631Z,13.00
2024-03-30T02:05:50.094Z,13.00
2024-03-30T02:08:18.431Z,14.00
2024-03-30T02:10:47.544Z,18.90
2024-03-30T02:13:14.311Z,14.00
2024-03-30T02:15:40.939Z,15.60
2024-03-30T02:18:07.937Z,11.80
2024-03-30T02:20:34.605Z,11.10
2024-03-30T02:23:01.176Z,6.50
2024-03-30T02:25:27.772Z,9.70
2024-03-30T02:27:54.404Z,12.90
2024-03-30T02:30:42.642Z,13.50
2024-03-30T02:33:09.496Z,8.80
2024-03-30T02:35:36.102Z,9.50
2024-03-30T02:38:02.864Z,8.80
2024-03-30T02:40:29.597Z,11.00
2024-03-30T02:42:56.167Z,10.80
2024-03-30T02:45:22.876Z,11.30
2024-03-30T02:47:49.473Z,9.40
2024-03-30T02:50:16.014Z,12.50
2024-03-30T02:52:42.578Z,10.90
2024-03-30T02:55:09.162Z,12.10
2024-03-30T02:57:35.816Z,16.20
2024-03-30T03:00:02.383Z,8.70
2024-03-30T03:02:28.927Z,12.80
2024-03-30T03:04:55.515Z,18.80
2024-03-30T03:07:22.064Z,16.10
2024-03-30T03:09:48.634Z,19.40
2024-03-30T03:12:15.186Z,12.20
2024-03-30T03:14:41.773Z,12.80
2024-03-30T03:17:08.366Z,13.10
2024-03-30T03:19:34.886Z,21.70
2024-03-30T03:22:01.484Z,17.00
2024-03-30T03:24:28.087Z,9.60
2024-03-30T03:26:54.782Z,18.40
2024-03-30T03:29:21.307Z,21.40
2024-03-30T03:31:47.945Z,11.70
2024-03-30T03:34:14.570Z,18.90
2024-03-30T03:36:42.568Z,19.70
2024-03-30T03:39:09.126Z,13.50
2024-03-30T03:41:36.024Z,17.90
2024-03-30T03:44:02.621Z,20.30
2024-03-30T03:46:29.216Z,17.00
2024-03-30T03:48:55.734Z,16.30
2024-03-30T03:51:22.334Z,16.80
2024-03-30T03:53:48.891Z,21.70
2024-03-30T03:56:15.590Z,15.50
2024-03-30T03:58:42.201Z,21.10
2024-03-30T04:01:08.835Z,14.50
2024-03-30T04:03:37.445Z,16.80
2024-03-30T04:06:10.759Z,14.10
2024-03-30T04:08:37.408Z,18.30
2024-03-30T04:11:06.289Z,14.50
2024-03-30T04:13:33.690Z,23.80
2024-03-30T04:16:07.235Z,25.20
2024-03-30T04:18:34.361Z,18.40
2024-03-30T04:21:03.448Z,18.50
2024-03-30T04:23:32.388Z,13.90
2024-03-30T04:26:12.856Z,20.40
2024-03-30T04:28:39.367Z,22.30
2024-03-30T04:31:06.949Z,19.30
2024-03-30T04:33:34.798Z,15.30
2024-03-30T04:36:03.648Z,21.70
2024-03-30T04:38:31.459Z,23.60
2024-03-30T04:40:59.524Z,29.10
2024-03-30T04:43:27.021Z,24.30
2024-03-30T04:45:53.762Z,16.80
2024-03-30T04:48:20.825Z,16.40
2024-03-30T04:50:47.642Z,21.40
2024-03-30T04:53:23.444Z,22.20
2024-03-30T04:55:51.355Z,17.10
2024-03-30T04:58:22.611Z,18.30
2024-03-30T05:00:54.491Z,21.60
2024-03-30T05:05:48.783Z,15.10
2024-03-30T05:08:15.754Z,22.40
2024-03-30T05:10:43.915Z,22.00
2024-03-30T05:13:11.146Z,25.70
2024-03-30T05:15:40.215Z,23.20
2024-03-30T05:18:08.959Z,19.00
2024-03-30T05:20:52.131Z,18.90
2024-03-30T05:23:30.750Z,20.80
2024-03-30T05:26:01.898Z,22.00
2024-03-30T05:28:30.209Z,22.30
2024-03-30T05:30:58.690Z,23.40
2024-03-30T05:33:26.972Z,18.30
2024-03-30T05:35:55.131Z,20.10
2024-03-30T05:38:22.570Z,22.00
2024-03-30T05:40:50.426Z,17.20
2024-03-30T05:43:17.759Z,27.00
2024-03-30T05:45:49.060Z,11.00
2024-03-30T05:48:15.712Z,18.60
2024-03-30T05:50:42.327Z,22.00
2024-03-30T05:53:08.947Z,21.00
2024-03-30T05:55:35.501Z,18.80
2024-03-30T05:58:05.144Z,19.20
2024-03-30T06:00:32.902Z,20.20
2024-03-30T06:02:59.601Z,27.50
2024-03-30T06:05:27.334Z,19.90
2024-03-30T06:07:53.981Z,27.90
2024-03-30T06:10:20.613Z,20.30
2024-03-30T06:12:47.184Z,20.20
2024-03-30T06:15:13.745Z,15.80
2024-03-30T06:17:40.796Z,15.40
2024-03-30T06:20:10.032Z,24.20
2024-03-30T06:22:37.681Z,22.60
2024-03-30T06:25:07.345Z,24.20
2024-03-30T06:27:35.092Z,20.80
2024-03-30T06:30:02.649Z,23.70
2024-03-30T06:32:29.376Z,24.70
2024-03-30T06:34:55.983Z,19.30
2024-03-30T06:37:22.611Z,22.00
2024-03-30T06:40:08.011Z,21.70
2024-03-30T06:42:53.392Z,26.60
2024-03-30T06:45:19.992Z,31.00
2024-03-30T06:47:46.571Z,15.40
2024-03-30T06:50:13.093Z,22.50
2024-03-30T06:52:39.727Z,22.60
2024-03-30T06:55:06.362Z,29.50
2024-03-30T06:57:32.900Z,28.40
2024-03-30T06:59:59.840Z,23.60
2024-03-30T07:02:26.601Z,21.30
2024-03-30T07:04:53.233Z,17.10
2024-03-30T07:07:19.890Z,15.90
2024-03-30T07:09:46.500Z,23.40
2024-03-30T07:12:13.382Z,17.50
2024-03-30T07:14:39.919Z,24.20
2024-03-30T07:17:14.317Z,28.00
2024-03-30T07:19:42.210Z,28.70
2024-03-30T07:22:08.822Z,21.90
2024-03-30T07:24:38.386Z,18.70
2024-03-30T07:27:05.463Z,18.70
2024-03-30T07:29:33.188Z,29.80
2024-03-30T07:32:01.873Z,24.60
2024-03-30T07:34:28.508Z,22.20
2024-03-30T07:36:55.120Z,26.00
2024-03-30T07:39:21.887Z,19.20
2024-03-30T07:41:48.559Z,23.70
2024-03-30T07:44:17.243Z,27.80
2024-03-30T07:46:43.784Z,33.90
2024-03-30T07:49:10.381Z,30.20
2024-03-30T07:51:36.974Z,28.30
2024-03-30T07:54:03.547Z,22.80
2024-03-30T07:56:30.157Z,28.90
2024-03-30T07:58:58.998Z,25.10
2024-03-30T08:01:28.326Z,26.80
2024-03-30T08:03:54.940Z,31.70
2024-03-30T08:06:21.541Z,27.10
2024-03-30T08:08:48.114Z,30.10
2024-03-30T08:11:14.757Z,22.60
2024-03-30T08:13:41.736Z,22.50
2024-03-30T08:16:08.287Z,25.70
2024-03-30T08:18:36.019Z,23.70
2024-03-30T08:21:03.950Z,23.90
2024-03-30T08:23:32.270Z,21.50
2024-03-30T08:25:58.924Z,28.50
2024-03-30T08:28:25.489Z,29.60
2024-03-30T08:30:52.110Z,29.60
2024-03-30T08:33:18.722Z,28.80
2024-03-30T08:36:03.568Z,34.50
2024-03-30T08:38:30.148Z,21.70
2024-03-30T08:40:56.687Z,28.40
2024-03-30T08:43:26.588Z,39.10
2024-03-30T08:45:54.710Z,29.20
2024-03-30T08:48:21.691Z,20.90
2024-03-30T08:50:48.542Z,27.30
2024-03-30T08:53:15.206Z,22.50
2024-03-30T08:55:41.907Z,28.30
2024-03-30T08:58:08.847Z,25.60
2024-03-30T09:00:36.216Z,22.70
2024-03-30T09:03:04.238Z,25.30
2024-03-30T09:05:31.184Z,16.10
2024-03-30T09:07:58.339Z,21.50
2024-03-30T09:10:26.786Z,20.40
2024-03-30T09:12:53.399Z,24.00
2024-03-30T09:15:22.772Z,18.40
2024-03-30T09:17:49.370Z,16.80
2024-03-30T09:20:16.234Z,19.30
2024-03-30T09:22:43.445Z,17.30
2024-03-30T09:25:16.186Z,21.30
2024-03-30T09:27:43.062Z,27.10
2024-03-30T09:30:11.517Z,21.40
2024-03-30T09:32:42.334Z,19.30
2024-03-30T09:35:09.850Z,20.20
2024-03-30T09:37:37.920Z,25.30
2024-03-30T09:40:05.663Z,16.80
2024-03-30T09:42:36.598Z,18.20
2024-03-30T09:45:04.724Z,21.10
2024-03-30T09:47:32.740Z,27.60
2024-03-30T09:50:03.232Z,21.60
2024-03-30T09:52:31.119Z,23.70
2024-03-30T09:55:01.121Z,31.70
2024-03-30T09:57:30.647Z,17.60
2024-03-30T09:59:58.111Z,26.90
2024-03-30T10:02:24.883Z,20.90
2024-03-30T10:04:51.605Z,24.10
2024-03-30T10:07:44.612Z,24.40
2024-03-30T10:10:17.187Z,26.70
2024-03-30T10:13:05.466Z,27.70
2024-03-30T10:15:43.989Z,20.80
2024-03-30T10:18:10.594Z,24.30
2024-03-30T10:20:37.202Z,29.90
2024-03-30T10:23:04.285Z,33.90
2024-03-30T10:25:32.371Z,26.20
2024-03-30T10:27:59.042Z,26.50
2024-03-30T10:30:26.706Z,22.60
2024-03-30T10:32:56.060Z,31.40
2024-03-30T10:35:23.664Z,27.40
2024-03-30T10:37:50.871Z,26.70
2024-03-30T10:40:17.531Z,35.50
2024-03-30T10:42:44.191Z,39.40
2024-03-30T10:45:11.523Z,32.60
2024-03-30T10:47:39.822Z,24.50
2024-03-30T10:50:07.891Z,29.10
2024-03-30T10:52:38.490Z,27.90
2024-03-30T10:55:06.575Z,24.40
2024-03-30T10:57:33.218Z,33.40
2024-03-30T11:00:04.401Z,33.80
2024-03-30T11:02:32.744Z,26.20
2024-03-30T11:05:01.714Z,19.30
2024-03-30T11:07:28.455Z,29.10
2024-03-30T11:09:56.803Z,27.90
2024-03-30T11:12:24.240Z,37.60
2024-03-30T11:14:51.313Z,16.70
2024-03-30T11:17:31.668Z,23.90
2024-03-30T11:20:20.064Z,17.80
2024-03-30T11:22:54.067Z,27.10
2024-03-30T11:25:23.101Z,25.90
2024-03-30T11:28:18.712Z,21.10
2024-03-30T11:31:05.412Z,24.80
2024-03-30T11:33:37.688Z,20.60
2024-03-30T11:36:16.225Z,22.10
2024-03-30T11:38:47.809Z,19.30
2024-03-30T11:41:16.874Z,18.60
2024-03-30T11:43:48.079Z,21.30
2024-03-30T11:46:15.775Z,24.00
2024-03-30T11:48:43.024Z,23.00
2024-03-30T11:51:28.937Z,16.30
2024-03-30T11:53:55.457Z,29.80
2024-03-30T11:56:22.047Z,18.50
2024-03-30T11:58:57.382Z,25.10
2024-03-30T12:01:23.914Z,22.80
2024-03-30T12:03:50.980Z,31.50
2024-03-30T12:06:22.491Z,28.90
2024-03-30T12:08:50.156Z,27.40
2024-03-30T12:11:17.071Z,31.40
2024-03-30T12:13:44.030Z,21.70
2024-03-30T12:16:10.951Z,20.40
2024-03-30T12:18:40.258Z,23.40
2024-03-30T12:21:08.643Z,28.30
2024-03-30T12:23:35.793Z,34.40
2024-03-30T12:26:02.899Z,28.00
2024-03-30T12:28:29.462Z,26.80
2024-03-30T12:30:56.238Z,21.70
2024-03-30T12:33:26.749Z,16.70
2024-03-30T12:35:53.620Z,33.30
2024-03-30T12:38:20.282Z,32.00
2024-03-30T12:40:47.597Z,27.90
2024-03-30T12:43:15.047Z,20.30
2024-03-30T12:45:45.423Z,24.70
2024-03-30T12:48:12.861Z,18.10
2024-03-30T12:50:39.491Z,18.20
2024-03-30T12:53:07.759Z,29.30
2024-03-30T12:55:35.297Z,28.00
2024-03-30T12:58:01.972Z,26.00
2024-03-30T13:00:29.080Z,27.40
2024-03-30T13:02:58.753Z,30.40
2024-03-30T13:05:35.679Z,27.90
2024-03-30T13:08:07.230Z,29.20
2024-03-30T13:10:35.823Z,18.10
2024-03-30T13:13:04.456Z,24.80
2024-03-30T13:15:32.052Z,29.10
2024-03-30T13:18:06.892Z,25.80
2024-03-30T13:20:33.450Z,30.50
2024-03-30T13:23:05.649Z,21.00
2024-03-30T13:25:32.381Z,30.60
2024-03-30T13:27:59.021Z,29.70
2024-03-30T13:30:27.012Z,24.50
2024-03-30T13:32:54.081Z,26.30
2024-03-30T13:35:20.623Z,20.60
2024-03-30T13:37:47.149Z,24.90
2024-03-30T13:40:14.025Z,28.30
2024-03-30T13:42:40.630Z,23.90
2024-03-30T13:45:07.615Z,29.60
2024-03-30T13:47:34.205Z,30.20
2024-03-30T13:50:01.195Z,28.00
2024-03-30T13:52:27.770Z,36.30
2024-03-30T13:54:54.390Z,35.50
2024-03-30T13:57:20.952Z,29.10
2024-03-30T13:59:48.259Z,26.30
2024-03-30T14:02:14.957Z,24.70
2024-03-30T14:04:41.483Z,24.60
2024-03-30T14:07:08.132Z,27.60
2024-03-30T14:09:34.757Z,22.10
2024-03-30T14:12:01.548Z,21.50
2024-03-30T14:14:28.244Z,27.40
2024-03-30T14:16:54.815Z,17.20
2024-03-30T14:19:21.392Z,25.60
2024-03-30T14:21:48.019Z,22.80
2024-03-30T14:24:14.571Z,20.50
2024-03-30T14:26:41.234Z,20.90
2024-03-30T14:29:07.842Z,17.90
2024-03-30T14:31:34.422Z,26.30
2024-03-30T14:34:00.971Z,19.60
2024-03-30T14:36:32.854Z,19.90
2024-03-30T14:39:00.702Z,24.70
2024-03-30T14:41:27.645Z,32.90
2024-03-30T14:43:55.344Z,27.00
2024-03-30T14:46:23.543Z,26.60
2024-03-30T14:48:50.934Z,25.70
2024-03-30T14:51:18.052Z,20.40
2024-03-30T14:53:47.507Z,16.50
2024-03-30T14:56:14.870Z,21.20
2024-03-30T14:58:41.908Z,19.60
2024-03-30T15:01:13.218Z,26.60
2024-03-30T15:03:46.615Z,25.10
2024-03-30T15:06:20.691Z,28.60
2024-03-30T15:08:51.934Z,27.10
2024-03-30T15:11:20.599Z,26.10
2024-03-30T15:13:47.683Z,23.50
2024-03-30T15:16:14.239Z,20.60
2024-03-30T15:18:41.997Z,23.30
2024-03-30T15:21:09.927Z,19.00
2024-03-30T15:23:39.485Z,23.60
2024-03-30T15:26:12.956Z,28.90
2024-03-30T15:28:40.580Z,24.80
2024-03-30T15:31:26.464Z,20.40
2024-03-30T15:33:58.086Z,27.60
2024-03-30T15:36:25.559Z,25.20
2024-03-30T15:38:52.481Z,23.10
2024-03-30T15:41:19.631Z,21.70
2024-03-30T15:43:46.334Z,25.20
2024-03-30T15:46:16.860Z,22.70
2024-03-30T15:48:45.393Z,21.50
2024-03-30T15:51:12.003Z,23.30
2024-03-30T15:53:38.779Z,21.70
2024-03-30T15:56:05.717Z,19.80
2024-03-30T15:58:35.938Z,18.30
2024-03-30T16:01:07.958Z,23.70
2024-03-30T16:03:41.008Z,21.10
2024-03-30T16:06:08.694Z,34.30
2024-03-30T16:08:35.310Z,19.10
2024-03-30T16:11:02.171Z,31.50
2024-03-30T16:13:30.659Z,23.70
2024-03-30T16:15:58.809Z,28.90
2024-03-30T16:18:25.818Z,31.40
2024-03-30T16:20:58.973Z,27.60
2024-03-30T16:23:26.996Z,25.40
2024-03-30T16:25:58.253Z,19.60
2024-03-30T16:28:24.984Z,28.90
2024-03-30T16:30:56.085Z,21.30
2024-03-30T16:33:22.761Z,25.10
2024-03-30T16:35:49.405Z,20.10
2024-03-30T16:38:16.226Z,23.30
2024-03-30T16:40:42.871Z,25.20
2024-03-30T16:43:09.421Z,28.70
2024-03-30T16:45:36.655Z,34.40
2024-03-30T16:48:05.376Z,33.70
2024-03-30T16:50:32.236Z,23.20
2024-03-30T16:52:58.923Z,30.00
2024-03-30T16:55:25.583Z,27.70
2024-03-30T16:57:53.897Z,23.80
2024-03-30T17:00:22.241Z,22.50
2024-03-30T17:02:48.767Z,26.60
2024-03-30T17:05:15.592Z,28.20
2024-03-30T17:07:43.144Z,21.70
2024-03-30T17:10:09.782Z,31.70
2024-03-30T17:12:40.213Z,25.10
2024-03-30T17:15:07.587Z,19.00
2024-03-30T17:17:34.166Z,25.70
2024-03-30T17:20:00.803Z,29.10
2024-03-30T17:22:27.678Z,30.10
2024-03-30T17:24:55.024Z,24.10
2024-03-30T17:27:21.643Z,23.80
2024-03-30T17:29:48.283Z,28.30
2024-03-30T17:32:14.852Z,20.10
2024-03-30T17:34:53.330Z,27.40
2024-03-30T17:37:23.562Z,19.70
2024-03-30T17:39:50.450Z,20.90
2024-03-30T17:42:16.999Z,21.60
2024-03-30T17:44:48.376Z,23.80
2024-03-30T17:47:15.037Z,30.50
2024-03-30T17:49:43.543Z,30.80
2024-03-30T17:52:10.364Z,24.30
2024-03-30T17:54:39.437Z,28.50
2024-03-30T17:57:06.367Z,23.60
2024-03-30T17:59:32.955Z,26.20
2024-03-30T18:01:59.613Z,22.60
2024-03-30T18:04:29.772Z,31.00
2024-03-30T18:06:56.367Z,25.10
2024-03-30T18:09:22.999Z,33.90
2024-03-30T18:11:49.543Z,30.00
2024-03-30T18:14:17.243Z,32.40
2024-03-30T18:16:44.039Z,36.90
2024-03-30T18:19:10.719Z,27.70
2024-03-30T18:21:37.271Z,28.70
2024-03-30T18:24:04.111Z,22.90
2024-03-30T18:26:33.985Z,32.20
2024-03-30T18:29:00.653Z,30.30
2024-03-30T18:31:27.320Z,31.60
2024-03-30T18:33:53.923Z,15.90
2024-03-30T18:36:20.546Z,25.40
2024-03-30T18:38:49.366Z,24.60
2024-03-30T18:41:16.577Z,22.60
2024-03-30T18:43:43.544Z,22.30
2024-03-30T18:46:11.434Z,29.40
2024-03-30T18:48:38.007Z,32.00
2024-03-30T18:51:12.115Z,34.80
2024-03-30T18:53:39.262Z,32.20
2024-03-30T18:56:10.108Z,25.90
2024-03-30T18:58:36.945Z,31.00
2024-03-30T19:01:09.045Z,26.70
2024-03-30T19:03:38.843Z,27.40
2024-03-30T19:06:05.851Z,31.20
2024-03-30T19:08:32.499Z,23.90
2024-03-30T19:11:00.611Z,29.50
2024-03-30T19:13:27.226Z,22.00
2024-03-30T19:15:54.839Z,25.10
2024-03-30T19:18:21.459Z,27.40
2024-03-30T19:20:48.260Z,30.20
2024-03-30T19:23:14.878Z,42.40
2024-03-30T19:25:41.947Z,50.30
2024-03-30T19:28:08.589Z,30.00
2024-03-30T19:30:35.247Z,36.10
2024-03-30T19:33:02.270Z,43.60
2024-03-30T19:35:28.852Z,36.00
2024-03-30T19:37:55.363Z,21.00
2024-03-30T19:40:25.068Z,28.90
2024-03-30T19:42:51.761Z,26.20
2024-03-30T19:45:18.662Z,39.50
2024-03-30T19:47:45.250Z,39.60
2024-03-30T19:50:13.091Z,38.70
2024-03-30T19:52:39.718Z,32.80
2024-03-30T19:55:06.578Z,37.50
2024-03-30T19:57:35.251Z,29.40
2024-03-30T20:00:04.479Z,37.40
2024-03-30T20:02:31.919Z,34.10
2024-03-30T20:04:59.410Z,39.90
2024-03-30T20:07:25.959Z,30.20
2024-03-30T20:09:52.835Z,46.80
2024-03-30T20:12:19.436Z,31.50
2024-03-30T20:14:46.427Z,29.70
2024-03-30T20:17:12.992Z,44.70
2024-03-30T20:19:39.540Z,37.60
2024-03-30T20:22:06.071Z,33.00
2024-03-30T20:24:32.686Z,33.90
2024-03-30T20:26:59.384Z,35.00
2024-03-30T20:29:26.049Z,31.10
2024-03-30T20:31:52.626Z,30.40
2024-03-30T20:34:19.271Z,42.50
2024-03-30T20:36:45.791Z,34.50
2024-03-30T20:39:12.319Z,32.20
2024-03-30T20:41:38.999Z,37.30
2024-03-30T20:44:05.578Z,41.50
2024-03-30T20:46:32.203Z,28.60
2024-03-30T20:48:58.731Z,25.40
2024-03-30T20:51:25.462Z,35.30
2024-03-30T20:53:52.015Z,27.70
2024-03-30T20:56:18.602Z,40.70
2024-03-30T20:58:45.145Z,34.90
2024-03-30T21:01:11.774Z,24.70
2024-03-30T21:03:38.420Z,43.00
2024-03-30T21:06:06.721Z,33.00
2024-03-30T21:08:33.884Z,23.10
2024-03-30T21:11:01.106Z,29.90
2024-03-30T21:13:27.841Z,39.60
2024-03-30T21:16:03.409Z,26.50
2024-03-30T21:18:31.050Z,38.00
2024-03-30T21:21:01.929Z,33.50
2024-03-30T21:23:29.040Z,28.70
2024-03-30T21:26:06.362Z,37.80
2024-03-30T21:31:01.371Z,30.50
2024-03-30T21:33:28.024Z,28.60
2024-03-30T21:35:55.654Z,44.80
2024-03-30T21:38:23.095Z,44.80
2024-03-30T21:40:50.345Z,35.50
2024-03-30T21:43:17.074Z,57.30
2024-03-30T21:46:01.195Z,35.70
2024-03-30T21:48:27.989Z,31.20
2024-03-30T21:50:58.556Z,29.70
2024-03-30T21:53:25.459Z,29.40
2024-03-30T21:55:55.434Z,26.50
2024-03-30T21:58:22.876Z,37.60
2024-03-30T22:00:50.178Z,26.20
2024-03-30T22:03:16.878Z,35.60
2024-03-30T22:05:44.480Z,31.00
2024-03-30T22:08:11.131Z,33.80
2024-03-30T22:10:39.060Z,27.30
2024-03-30T22:13:06.798Z,28.20
2024-03-30T22:15:34.340Z,24.40
2024-03-30T22:18:03.039Z,31.30
2024-03-30T22:20:29.934Z,26.20
2024-03-30T22:22:56.775Z,28.20
2024-03-30T22:25:26.124Z,34.20
2024-03-30T22:27:53.579Z,21.80
2024-03-30T22:30:21.444Z,23.40
2024-03-30T22:32:48.479Z,24.70
2024-03-30T22:35:15.269Z,19.90
2024-03-30T22:37:41.987Z,29.60
2024-03-30T22:40:09.791Z,28.00
2024-03-30T22:42:36.382Z,27.50
2024-03-30T22:45:03.122Z,26.90
2024-03-30T22:47:29.897Z,26.30
2024-03-30T22:49:56.493Z,31.50
2024-03-30T22:52:23.051Z,32.60
2024-03-30T22:54:49.611Z,34.00
2024-03-30T22:57:16.351Z,30.50
2024-03-30T22:59:42.974Z,33.20
2024-03-30T23:02:09.502Z,32.20
2024-03-30T23:04:39.771Z,19.70
2024-03-30T23:07:07.043Z,27.80
2024-03-30T23:09:33.735Z,38.70
2024-03-30T23:12:00.808Z,34.30
2024-03-30T23:14:31.426Z,24.00
2024-03-30T23:16:58.339Z,18.50
2024-03-30T23:19:24.955Z,30.70
2024-03-30T23:21:54.065Z,30.90
2024-03-30T23:24:20.682Z,25.30
2024-03-30T23:26:47.327Z,31.00
2024-03-30T23:29:15.502Z,24.90
2024-03-30T23:31:42.458Z,29.40
2024-03-30T23:34:09.984Z,39.10
2024-03-30T23:36:36.679Z,22.60
2024-03-30T23:39:03.826Z,22.80
2024-03-30T23:41:30.461Z,20.70
2024-03-30T23:43:57.089Z,23.60
2024-03-30T23:46:23.800Z,21.50
2024-03-30T23:48:50.419Z,18.30
2024-03-30T23:51:17.037Z,19.70
2024-03-30T23:53:43.599Z,22.10
2024-03-30T23:56:10.185Z,26.70
2024-03-30T23:58:36.807Z,22.50
